Time;durP1;ratioP1;P1;durP2;ratioP2;P2;SDS_P1;SDS_P2;PMS_P1;PMS_P2;Temp;Humidity;BMP_temperature;BMP_pressure;BME280_temperature;BME280_humidity;BME280_pressure;Samples;Min_cycle;Max_cycle;Signal;HPM_P1;HPM_P2
2022/08/10 00:02:37;;;;;;;3.60;3.30;;;21.20;54.40;;;;;;5032796;28;20594;-65
2022/08/10 00:05:04;;;;;;;3.80;3.00;;;21.20;54.80;;;;;;5031323;28;20452;-65
2022/08/10 00:07:29;;;;;;;4.03;2.90;;;21.10;55.30;;;;;;5032283;28;20191;-65
2022/08/10 00:09:55;;;;;;;3.40;3.10;;;21.10;55.30;;;;;;5028443;28;20437;-65
2022/08/10 00:12:20;;;;;;;4.20;3.90;;;21.00;55.60;;;;;;5031495;28;20182;-65
2022/08/10 00:14:46;;;;;;;4.33;3.80;;;21.00;55.80;;;;;;5032375;28;20188;-65
2022/08/10 00:17:11;;;;;;;3.60;3.30;;;21.00;55.90;;;;;;5031812;28;20280;-65
2022/08/10 00:19:37;;;;;;;3.13;2.93;;;21.00;55.90;;;;;;5028986;28;20635;-65
2022/08/10 00:22:03;;;;;;;4.00;3.40;;;21.10;56.10;;;;;;5033711;28;20709;-65
2022/08/10 00:24:28;;;;;;;3.30;3.10;;;21.00;56.40;;;;;;5029913;28;20202;-65
2022/08/10 00:26:54;;;;;;;3.53;3.23;;;21.00;56.60;;;;;;5029687;28;20265;-65
2022/08/10 00:29:19;;;;;;;3.50;3.20;;;21.00;56.70;;;;;;5032191;28;20178;-65
2022/08/10 00:31:45;;;;;;;2.90;2.70;;;21.00;56.80;;;;;;5031277;28;20190;-65
2022/08/10 00:34:10;;;;;;;3.43;3.13;;;20.90;57.10;;;;;;5033470;28;20197;-65
2022/08/10 00:36:36;;;;;;;3.63;3.43;;;20.90;57.60;;;;;;5031735;28;20263;-65
2022/08/10 00:39:01;;;;;;;3.27;3.07;;;20.80;59.10;;;;;;5030058;28;20178;-65
2022/08/10 00:41:27;;;;;;;4.00;3.57;;;20.70;59.70;;;;;;5031799;28;20189;-65
2022/08/10 00:43:52;;;;;;;3.83;3.50;;;20.50;60.40;;;;;;5031832;28;20698;-65
2022/08/10 00:46:18;;;;;;;3.20;3.00;;;20.30;62.20;;;;;;5031199;28;20258;-65
2022/08/10 00:48:43;;;;;;;3.83;3.50;;;20.20;64.10;;;;;;5031482;28;20174;-65
2022/08/10 00:51:10;;;;;;;3.40;3.20;;;20.00;65.90;;;;;;5031806;28;20182;-65
2022/08/10 00:53:36;;;;;;;3.73;3.53;;;19.80;67.00;;;;;;5052101;23;20225;-59
2022/08/10 00:56:02;;;;;;;4.27;3.13;;;19.80;68.00;;;;;;5040640;28;20437;-60
2022/08/10 00:58:28;;;;;;;3.30;3.10;;;19.80;68.30;;;;;;5052019;28;20200;-65
2022/08/10 01:00:53;;;;;;;3.33;3.13;;;19.90;68.50;;;;;;5050862;28;20601;-65
2022/08/10 01:03:19;;;;;;;3.97;3.67;;;20.00;68.30;;;;;;5052432;28;20472;-65
2022/08/10 01:06:04;;;;;;;3.20;3.00;;;20.00;69.50;;;;;;5035794;28;20182;-65
2022/08/10 01:08:48;;;;;;;3.50;3.30;;;19.90;71.60;;;;;;5035611;28;20189;-65
2022/08/10 01:11:28;;;;;;;3.50;3.30;;;19.80;72.40;;;;;;5031274;28;20474;-65
2022/08/10 01:14:35;;;;;;;6.50;3.47;;;19.80;72.80;;;;;;5041110;28;20460;-65
2022/08/10 01:17:41;;;;;;;3.97;3.60;;;19.70;73.50;;;;;;5039635;28;20448;-64
2022/08/10 01:20:24;;;;;;;3.40;3.20;;;19.70;75.80;;;;;;4994912;28;20490;-65
2022/08/10 01:22:53;;;;;;;3.50;3.20;;;19.60;75.80;;;;;;5041316;28;21230;-63
2022/08/10 01:25:35;;;;;;;4.30;3.83;;;19.60;76.30;;;;;;5040695;28;20441;-63
2022/08/10 01:28:10;;;;;;;3.50;3.30;;;19.70;76.80;;;;;;5042991;28;20444;-64
2022/08/10 01:30:37;;;;;;;3.90;3.27;;;19.70;76.70;;;;;;5033433;28;20440;-63
2022/08/10 01:33:21;;;;;;;3.90;3.60;;;19.80;76.50;;;;;;5038669;28;20489;-63
2022/08/10 01:35:53;;;;;;;3.83;3.63;;;19.80;76.90;;;;;;5039834;28;20440;-65
2022/08/10 01:38:30;;;;;;;4.63;3.40;;;19.80;78.20;;;;;;5035795;28;20476;-65
2022/08/10 01:41:08;;;;;;;3.53;3.33;;;19.70;78.90;;;;;;5046430;28;20987;-65
2022/08/10 01:43:39;;;;;;;4.03;3.83;;;19.60;79.60;;;;;;5039139;28;20551;-65
2022/08/10 01:46:06;;;;;;;5.47;3.70;;;19.60;82.10;;;;;;5030886;28;20771;-64
2022/08/10 01:48:37;;;;;;;4.80;3.80;;;19.50;82.60;;;;;;5037633;28;20472;-65
2022/08/10 01:51:09;;;;;;;4.37;3.97;;;19.40;84.60;;;;;;5032445;28;20444;-63
2022/08/10 01:53:56;;;;;;;3.97;3.67;;;19.30;86.80;;;;;;5039019;28;20969;-65
2022/08/10 01:56:24;;;;;;;7.43;3.60;;;19.30;88.50;;;;;;5040012;28;20446;-65
2022/08/10 01:58:57;;;;;;;4.30;3.90;;;19.20;90.30;;;;;;5033154;28;20436;-65
2022/08/10 02:01:27;;;;;;;3.80;3.60;;;19.10;90.70;;;;;;5049039;28;20436;-63
2022/08/10 02:03:56;;;;;;;3.97;3.67;;;19.10;91.40;;;;;;5037572;28;20459;-63
2022/08/10 02:06:26;;;;;;;3.90;3.70;;;19.00;91.70;;;;;;5038078;28;20455;-61
2022/08/10 02:08:53;;;;;;;3.90;3.70;;;18.90;92.50;;;;;;5039898;28;20499;-64
2022/08/10 02:11:19;;;;;;;4.07;3.77;;;18.90;93.00;;;;;;5042102;28;20423;-62
2022/08/10 02:13:46;;;;;;;3.70;3.50;;;18.90;94.10;;;;;;5039618;28;20873;-63
2022/08/10 02:16:13;;;;;;;3.70;3.50;;;18.90;94.50;;;;;;5044309;28;20436;-64
2022/08/10 02:18:40;;;;;;;3.90;3.60;;;18.80;94.70;;;;;;5036898;28;20559;-63
2022/08/10 02:21:08;;;;;;;4.60;4.20;;;18.80;95.70;;;;;;5042774;28;20807;-63
2022/08/10 02:23:36;;;;;;;4.30;3.90;;;18.70;96.00;;;;;;5047957;28;20475;-61
2022/08/10 02:26:04;;;;;;;4.47;4.10;;;18.80;96.40;;;;;;5032953;28;20965;-65
2022/08/10 02:28:33;;;;;;;4.30;4.10;;;18.70;96.20;;;;;;5036193;28;20441;-64
2022/08/10 02:31:06;;;;;;;4.20;4.00;;;18.60;97.00;;;;;;5043982;28;20435;-63
2022/08/10 02:33:34;;;;;;;4.40;4.10;;;18.60;97.90;;;;;;5042074;28;20488;-64
2022/08/10 02:36:03;;;;;;;4.10;3.80;;;18.60;98.40;;;;;;5046806;28;20443;-64
2022/08/10 02:38:33;;;;;;;4.47;4.17;;;18.60;98.50;;;;;;5034269;28;20442;-63
2022/08/10 02:41:29;;;;;;;6.80;4.90;;;18.70;98.60;;;;;;5041015;28;20956;-64
2022/08/10 02:44:08;;;;;;;4.30;4.10;;;18.80;98.10;;;;;;5003114;28;20854;-64
2022/08/10 02:46:44;;;;;;;4.70;4.20;;;18.90;98.20;;;;;;5041009;28;20516;-62
2022/08/10 02:49:17;;;;;;;4.20;3.90;;;18.90;98.10;;;;;;5034587;28;20436;-63
2022/08/10 02:51:51;;;;;;;3.77;3.47;;;18.80;98.50;;;;;;5039553;28;20437;-63
2022/08/10 02:54:20;;;;;;;4.73;4.30;;;18.70;98.80;;;;;;5042785;28;20470;-63
2022/08/10 02:56:52;;;;;;;4.90;4.50;;;18.70;98.70;;;;;;5035426;28;20428;-63
2022/08/10 02:59:33;;;;;;;4.00;3.70;;;18.80;98.60;;;;;;5034021;28;20428;-63
2022/08/10 03:02:03;;;;;;;3.97;3.57;;;18.80;99.10;;;;;;5041048;28;20510;-62
2022/08/10 03:04:48;;;;;;;4.20;3.90;;;18.80;98.90;;;;;;5041558;28;20459;-64
2022/08/10 03:07:16;;;;;;;3.80;3.50;;;18.80;99.30;;;;;;5032400;28;20976;-64
2022/08/10 03:09:43;;;;;;;4.53;4.23;;;18.80;99.20;;;;;;5028591;28;20476;-63
2022/08/10 03:12:12;;;;;;;4.17;3.97;;;18.80;99.60;;;;;;5041461;28;20944;-63
2022/08/10 03:14:39;;;;;;;4.10;3.80;;;18.80;99.30;;;;;;5041533;28;20470;-62
2022/08/10 03:17:05;;;;;;;4.80;4.50;;;18.80;99.00;;;;;;5037229;28;20539;-63
2022/08/10 03:19:32;;;;;;;4.00;3.60;;;18.90;98.70;;;;;;5044294;28;20531;-63
2022/08/10 03:21:59;;;;;;;4.53;3.90;;;19.00;98.20;;;;;;5041537;28;20455;-64
2022/08/10 03:24:27;;;;;;;4.33;4.07;;;19.00;98.00;;;;;;5041989;28;20466;-64
2022/08/10 03:26:53;;;;;;;4.07;3.77;;;19.10;97.60;;;;;;5040124;28;21010;-63
2022/08/10 03:29:21;;;;;;;4.37;4.00;;;19.10;97.50;;;;;;5041125;28;20436;-62
2022/08/10 03:31:48;;;;;;;4.43;4.20;;;19.10;97.40;;;;;;5039923;28;20440;-64
2022/08/10 03:34:15;;;;;;;4.57;4.27;;;19.20;97.00;;;;;;5041291;28;21025;-63
2022/08/10 03:36:42;;;;;;;5.23;4.83;;;19.20;96.70;;;;;;5031334;28;20441;-64
2022/08/10 03:39:08;;;;;;;4.60;4.20;;;19.20;96.50;;;;;;5028593;28;20502;-62
2022/08/10 03:41:37;;;;;;;4.57;4.17;;;19.30;96.40;;;;;;5047349;28;21098;-64
2022/08/10 03:44:05;;;;;;;5.00;4.60;;;19.20;96.90;;;;;;5031870;28;20205;-62
2022/08/10 03:46:34;;;;;;;4.67;4.37;;;19.10;98.10;;;;;;5037990;28;20444;-65
2022/08/10 03:49:02;;;;;;;4.60;4.20;;;19.00;98.50;;;;;;5039931;28;20574;-63
2022/08/10 03:51:28;;;;;;;3.70;3.40;;;18.90;98.60;;;;;;5040242;28;20440;-64
2022/08/10 03:53:54;;;;;;;4.23;3.87;;;18.90;98.60;;;;;;5041242;28;20517;-63
2022/08/10 03:56:21;;;;;;;3.93;3.73;;;18.90;98.70;;;;;;5041604;28;20440;-66
2022/08/10 03:58:46;;;;;;;4.70;3.83;;;18.80;98.40;;;;;;5041497;28;20494;-63
2022/08/10 04:01:14;;;;;;;3.87;3.57;;;18.90;98.70;;;;;;5045465;28;20448;-63
2022/08/10 04:03:40;;;;;;;5.00;4.70;;;18.80;98.70;;;;;;5044996;28;20206;-63
2022/08/10 04:06:06;;;;;;;4.40;4.07;;;18.80;99.60;;;;;;5041171;28;20454;-63
2022/08/10 04:08:32;;;;;;;6.33;4.87;;;18.80;98.90;;;;;;5040552;28;20174;-62
2022/08/10 04:10:57;;;;;;;4.13;3.73;;;18.80;98.60;;;;;;5041549;28;20556;-63
2022/08/10 04:13:23;;;;;;;4.60;4.13;;;18.70;99.90;;;;;;5040926;28;20536;-63
2022/08/10 04:15:48;;;;;;;4.70;4.30;;;18.80;99.20;;;;;;5040353;28;21184;-65
2022/08/10 04:18:14;;;;;;;4.43;4.13;;;18.80;98.70;;;;;;5040440;28;20278;-63
2022/08/10 04:20:47;;;;;;;3.80;3.60;;;18.80;98.60;;;;;;5040772;28;20189;-65
2022/08/10 04:23:22;;;;;;;4.97;4.47;;;18.80;98.70;;;;;;5040251;28;20266;-65
2022/08/10 04:25:49;;;;;;;4.37;4.07;;;18.80;99.40;;;;;;5043082;28;20428;-64
2022/08/10 04:28:15;;;;;;;4.67;4.27;;;18.80;99.10;;;;;;5036708;28;20440;-64
2022/08/10 04:30:42;;;;;;;4.47;3.87;;;18.80;98.90;;;;;;5034545;28;20494;-64
2022/08/10 04:33:09;;;;;;;4.43;3.90;;;18.80;98.60;;;;;;5038135;28;20899;-65
2022/08/10 04:35:36;;;;;;;4.30;3.90;;;18.90;98.70;;;;;;5040699;28;20451;-66
2022/08/10 04:38:03;;;;;;;4.80;4.40;;;18.90;99.40;;;;;;5039757;28;20868;-65
2022/08/10 04:40:30;;;;;;;4.90;4.53;;;18.90;99.90;;;;;;5044216;28;20810;-65
2022/08/10 04:43:01;;;;;;;5.43;5.03;;;18.90;99.90;;;;;;5036254;28;20479;-63
2022/08/10 04:45:26;;;;;;;4.40;4.00;;;18.90;99.90;;;;;;5036734;28;20444;-65
2022/08/10 04:47:52;;;;;;;4.40;4.20;;;18.80;99.90;;;;;;5036964;28;20505;-64
2022/08/10 04:50:17;;;;;;;5.43;4.87;;;18.80;99.90;;;;;;5038042;28;20245;-66
2022/08/10 04:52:43;;;;;;;5.27;4.97;;;18.80;99.90;;;;;;5042356;28;20184;-65
2022/08/10 04:55:09;;;;;;;3.90;3.60;;;18.90;99.90;;;;;;5036548;28;20206;-64
2022/08/10 04:57:34;;;;;;;5.17;4.67;;;19.00;99.90;;;;;;5034649;28;20552;-65
2022/08/10 04:59:59;;;;;;;5.40;4.90;;;19.20;99.90;;;;;;5038104;28;20185;-65
2022/08/10 05:02:25;;;;;;;6.37;5.40;;;19.20;99.90;;;;;;5044134;28;20209;-65
2022/08/10 05:04:51;;;;;;;5.63;5.13;;;19.30;99.90;;;;;;5042216;28;20205;-66
2022/08/10 05:07:16;;;;;;;5.83;5.27;;;19.30;99.90;;;;;;5036738;28;20264;-65
2022/08/10 05:09:43;;;;;;;5.60;5.10;;;19.50;99.90;;;;;;5038567;28;20239;-64
2022/08/10 05:12:08;;;;;;;4.90;4.60;;;19.50;99.90;;;;;;5044468;28;20181;-65
2022/08/10 05:14:34;;;;;;;6.63;6.03;;;19.60;99.90;;;;;;5036436;28;20551;-63
2022/08/10 05:17:00;;;;;;;4.70;4.40;;;19.80;99.90;;;;;;5041709;28;20182;-66
2022/08/10 05:19:25;;;;;;;6.67;6.07;;;19.90;99.90;;;;;;5043670;28;20668;-63
2022/08/10 05:21:51;;;;;;;5.30;4.90;;;20.00;99.90;;;;;;5041326;28;20550;-65
2022/08/10 05:24:17;;;;;;;7.40;4.67;;;20.20;99.90;;;;;;5038750;28;20247;-64
2022/08/10 05:26:43;;;;;;;5.57;4.87;;;20.30;99.10;;;;;;5039761;28;20870;-66
2022/08/10 05:29:08;;;;;;;7.10;6.50;;;20.40;99.80;;;;;;5043327;28;20249;-65
2022/08/10 05:31:34;;;;;;;6.00;5.50;;;20.60;99.20;;;;;;5038391;28;20170;-65
2022/08/10 05:33:59;;;;;;;5.17;4.77;;;20.70;98.30;;;;;;5036300;28;20214;-65
2022/08/10 05:36:26;;;;;;;5.47;4.20;;;20.80;97.60;;;;;;5031189;28;20189;-63
2022/08/10 05:38:52;;;;;;;5.83;5.43;;;20.90;97.40;;;;;;5038536;28;20181;-66
2022/08/10 05:41:18;;;;;;;5.60;5.20;;;21.00;97.50;;;;;;5041958;28;20432;-65
2022/08/10 05:43:44;;;;;;;4.87;4.47;;;21.10;97.80;;;;;;5041264;28;21018;-65
2022/08/10 05:46:10;;;;;;;5.37;4.87;;;21.10;97.40;;;;;;5039202;28;20433;-63
2022/08/10 05:48:37;;;;;;;7.23;4.90;;;21.20;97.20;;;;;;5033720;28;20193;-62
2022/08/10 05:51:03;;;;;;;7.13;4.50;;;21.40;96.90;;;;;;5027333;28;20533;-63
2022/08/10 05:53:28;;;;;;;5.73;5.23;;;21.60;96.90;;;;;;5040349;28;20546;-62
2022/08/10 05:55:55;;;;;;;4.93;4.27;;;21.70;95.60;;;;;;5040246;28;20543;-63
2022/08/10 05:58:20;;;;;;;14.07;11.07;;;21.80;95.60;;;;;;5038369;28;20243;-62
2022/08/10 06:00:52;;;;;;;5.00;4.60;;;21.90;95.30;;;;;;5041005;28;20448;-62
2022/08/10 06:03:24;;;;;;;7.40;4.50;;;22.00;94.20;;;;;;5034691;28;20202;-62
2022/08/10 06:05:57;;;;;;;4.80;4.43;;;22.10;93.20;;;;;;5033744;28;20574;-63
2022/08/10 06:08:27;;;;;;;7.23;4.63;;;22.20;92.30;;;;;;5041448;28;20437;-63
2022/08/10 06:10:54;;;;;;;4.97;4.47;;;22.20;92.40;;;;;;5041300;28;20425;-63
2022/08/10 06:16:07;;;;;;;5.80;5.40;;;22.50;91.00;;;;;;5032314;28;20514;-62
2022/08/10 06:18:34;;;;;;;5.23;4.83;;;22.60;90.10;;;;;;5039615;28;20540;-62
2022/08/10 06:21:01;;;;;;;9.63;4.60;;;22.80;89.50;;;;;;5044907;28;20503;-63
2022/08/10 06:23:29;;;;;;;4.90;4.40;;;23.00;88.10;;;;;;5040797;28;20482;-63
2022/08/10 06:25:54;;;;;;;5.47;4.50;;;23.20;86.90;;;;;;5041708;28;20440;-62
2022/08/10 06:28:21;;;;;;;4.10;3.80;;;23.40;86.20;;;;;;5036531;28;20517;-63
2022/08/10 06:30:51;;;;;;;10.07;5.00;;;23.40;83.40;;;;;;5040332;28;20201;-63
2022/08/10 06:33:19;;;;;;;4.57;4.10;;;23.40;83.40;;;;;;5036212;28;20455;-63
2022/08/10 06:35:47;;;;;;;4.63;4.33;;;23.60;82.90;;;;;;5042760;28;20440;-63
2022/08/10 06:38:15;;;;;;;4.70;4.20;;;23.70;81.10;;;;;;5035133;28;20437;-64
2022/08/10 06:40:44;;;;;;;4.40;3.63;;;23.90;80.10;;;;;;5039909;28;20477;-65
2022/08/10 06:43:13;;;;;;;3.77;3.47;;;23.90;78.60;;;;;;5039708;28;20550;-65
2022/08/10 06:45:44;;;;;;;4.37;4.07;;;24.10;76.00;;;;;;5041533;28;20427;-65
2022/08/10 06:48:26;;;;;;;5.40;3.53;;;24.20;75.00;;;;;;5036618;28;20434;-65
2022/08/10 06:50:57;;;;;;;5.83;4.20;;;24.20;72.70;;;;;;5039507;28;20844;-65
2022/08/10 06:53:36;;;;;;;5.50;4.13;;;24.40;75.80;;;;;;5061916;23;20524;-62
2022/08/10 06:56:08;;;;;;;3.83;3.53;;;24.60;73.50;;;;;;5034044;28;20440;-63
2022/08/10 06:58:38;;;;;;;4.97;4.43;;;24.80;71.70;;;;;;5041769;28;20479;-62
2022/08/10 07:01:07;;;;;;;3.70;3.40;;;24.80;70.20;;;;;;5042561;28;20435;-62
2022/08/10 07:03:41;;;;;;;3.83;3.20;;;24.70;69.60;;;;;;5050136;28;21008;-63
2022/08/10 07:06:11;;;;;;;4.00;3.70;;;24.70;70.70;;;;;;5027245;28;20457;-63
2022/08/10 07:08:37;;;;;;;7.43;3.70;;;24.90;70.30;;;;;;5016952;28;20426;-63
2022/08/10 07:11:04;;;;;;;3.83;3.43;;;24.90;68.60;;;;;;5038498;28;20443;-63
2022/08/10 07:13:32;;;;;;;7.50;3.87;;;24.90;69.30;;;;;;5024197;28;20464;-63
2022/08/10 07:15:59;;;;;;;4.27;3.30;;;25.20;69.50;;;;;;5029500;28;20531;-63
2022/08/10 07:18:26;;;;;;;3.10;2.90;;;25.20;67.80;;;;;;5027820;28;20506;-63
2022/08/10 07:20:54;;;;;;;5.13;3.23;;;25.50;67.70;;;;;;5028833;28;20437;-62
2022/08/10 07:23:23;;;;;;;5.43;3.73;;;25.80;66.70;;;;;;5025064;28;20468;-62
2022/08/10 07:25:50;;;;;;;4.30;3.40;;;25.90;64.40;;;;;;5029401;28;20463;-64
2022/08/10 07:28:17;;;;;;;5.07;3.37;;;25.90;64.40;;;;;;5036154;28;20448;-63
2022/08/10 07:30:44;;;;;;;4.00;3.33;;;26.00;63.80;;;;;;5022859;28;20527;-62
2022/08/10 07:33:13;;;;;;;7.10;3.53;;;26.00;64.50;;;;;;5032078;28;20444;-61
2022/08/10 07:35:41;;;;;;;3.40;3.20;;;26.10;64.70;;;;;;5029343;28;20436;-62
2022/08/10 07:38:17;;;;;;;2.73;2.53;;;26.30;63.60;;;;;;5039980;28;20440;-63
2022/08/10 07:40:43;;;;;;;3.10;2.73;;;26.40;61.90;;;;;;5036677;28;20451;-64
2022/08/10 07:43:09;;;;;;;3.00;2.80;;;26.50;61.70;;;;;;5031287;28;20453;-63
2022/08/10 07:45:36;;;;;;;3.17;2.97;;;26.60;61.10;;;;;;5021188;28;20182;-64
2022/08/10 07:48:13;;;;;;;3.50;3.20;;;26.50;60.30;;;;;;5038768;28;20495;-63
2022/08/10 07:50:40;;;;;;;3.10;2.90;;;26.60;60.50;;;;;;5036132;28;20443;-64
2022/08/10 07:53:10;;;;;;;3.10;2.73;;;26.60;60.10;;;;;;5025387;28;20946;-64
2022/08/10 07:55:40;;;;;;;3.23;3.03;;;26.90;60.10;;;;;;5026874;28;20497;-61
2022/08/10 07:58:07;;;;;;;4.30;2.50;;;26.90;59.00;;;;;;5028752;28;20553;-62
2022/08/10 08:00:34;;;;;;;4.00;3.70;;;26.60;59.60;;;;;;5024083;28;20452;-62
2022/08/10 08:03:02;;;;;;;3.90;3.60;;;26.70;58.90;;;;;;5028746;28;20477;-62
2022/08/10 08:05:32;;;;;;;3.10;2.77;;;26.90;58.60;;;;;;5036869;28;20492;-62
2022/08/10 08:08:00;;;;;;;3.03;2.80;;;26.90;58.40;;;;;;5029182;28;20838;-62
2022/08/10 08:10:28;;;;;;;2.77;2.57;;;26.70;58.00;;;;;;5030247;28;20969;-62
2022/08/10 08:12:56;;;;;;;3.23;2.93;;;26.80;58.70;;;;;;5030531;28;20448;-63
2022/08/10 08:15:23;;;;;;;3.00;2.40;;;27.20;58.40;;;;;;5038642;28;20480;-62
2022/08/10 08:17:51;;;;;;;3.20;2.53;;;27.70;58.00;;;;;;5033442;28;20474;-62
2022/08/10 08:20:17;;;;;;;2.90;2.70;;;27.90;56.60;;;;;;5032768;28;20798;-61
2022/08/10 08:22:45;;;;;;;3.07;2.67;;;27.90;56.50;;;;;;5039950;28;20456;-62
2022/08/10 08:25:11;;;;;;;3.43;3.13;;;27.60;56.20;;;;;;5039537;28;20460;-62
2022/08/10 08:27:40;;;;;;;3.10;2.50;;;27.60;56.50;;;;;;5040226;28;20432;-62
2022/08/10 08:30:07;;;;;;;4.67;2.80;;;28.10;56.70;;;;;;5032855;28;20443;-62
2022/08/10 08:32:36;;;;;;;5.63;3.17;;;28.50;56.10;;;;;;5036602;28;20441;-62
2022/08/10 08:35:07;;;;;;;3.63;3.07;;;28.70;54.80;;;;;;5029880;28;20462;-62
2022/08/10 08:37:34;;;;;;;2.83;2.63;;;28.60;54.50;;;;;;5038073;28;20979;-62
2022/08/10 08:40:10;;;;;;;3.30;2.80;;;28.60;54.00;;;;;;5038125;28;20428;-62
2022/08/10 08:43:04;;;;;;;3.23;2.80;;;28.40;54.10;;;;;;5031940;28;20526;-62
2022/08/10 08:45:55;;;;;;;3.10;2.90;;;28.50;54.00;;;;;;5034565;28;20459;-63
2022/08/10 08:48:50;;;;;;;3.87;2.90;;;28.60;53.50;;;;;;5027050;28;20492;-62
2022/08/10 08:51:46;;;;;;;3.20;2.23;;;28.70;53.10;;;;;;5033789;28;20440;-62
2022/08/10 08:54:56;;;;;;;4.13;2.90;;;28.80;52.10;;;;;;5029909;28;21073;-62
2022/08/10 08:57:50;;;;;;;3.43;2.93;;;28.60;51.60;;;;;;5042151;28;20497;-62
2022/08/10 09:00:36;;;;;;;3.90;3.30;;;28.70;50.00;;;;;;4989426;28;20761;-62
2022/08/10 09:03:27;;;;;;;3.03;2.77;;;28.90;50.50;;;;;;5037950;28;20472;-62
2022/08/10 09:06:22;;;;;;;3.20;3.00;;;29.10;50.40;;;;;;5031962;28;20433;-62
2022/08/10 09:09:15;;;;;;;3.00;2.73;;;29.20;49.70;;;;;;5032681;28;20515;-62
2022/08/10 09:12:10;;;;;;;2.90;2.70;;;28.90;49.70;;;;;;5031979;28;20436;-61
2022/08/10 09:14:54;;;;;;;3.90;2.70;;;28.80;50.00;;;;;;5036205;28;20463;-63
2022/08/10 09:17:35;;;;;;;6.03;2.63;;;29.30;49.50;;;;;;5040641;28;20503;-62
2022/08/10 09:20:15;;;;;;;3.47;2.70;;;29.60;48.60;;;;;;5032733;28;20433;-61
2022/08/10 09:22:45;;;;;;;2.60;2.40;;;29.70;48.30;;;;;;5042023;28;20831;-62
2022/08/10 09:25:17;;;;;;;3.63;3.33;;;30.20;48.50;;;;;;5035939;28;20460;-61
2022/08/10 09:27:45;;;;;;;3.20;2.63;;;30.50;47.60;;;;;;5041239;28;20483;-62
2022/08/10 09:30:15;;;;;;;3.30;3.00;;;30.40;47.30;;;;;;5036542;28;20441;-62
2022/08/10 09:32:50;;;;;;;3.00;2.80;;;30.50;47.40;;;;;;5039424;28;20437;-62
2022/08/10 09:35:51;;;;;;;3.00;2.80;;;30.70;45.30;;;;;;5036727;28;20468;-62
2022/08/10 09:38:50;;;;;;;2.87;2.77;;;30.80;45.40;;;;;;5038157;28;20440;-62
2022/08/10 09:41:29;;;;;;;2.67;2.40;;;31.50;44.50;;;;;;5023775;28;20529;-61
2022/08/10 09:44:23;;;;;;;3.00;2.80;;;31.60;44.20;;;;;;5035851;28;20528;-62
2022/08/10 09:47:02;;;;;;;3.83;2.50;;;31.80;43.00;;;;;;5035877;28;20961;-61
2022/08/10 09:50:02;;;;;;;3.33;2.63;;;32.30;42.00;;;;;;5033776;28;20441;-62
2022/08/10 09:52:55;;;;;;;2.97;2.77;;;32.70;41.10;;;;;;5029754;28;20441;-62
2022/08/10 09:55:34;;;;;;;2.93;2.70;;;32.90;40.60;;;;;;5028967;28;20479;-62
2022/08/10 09:58:33;;;;;;;4.23;2.87;;;32.90;40.00;;;;;;5038075;28;20949;-62
2022/08/10 10:01:31;;;;;;;2.67;2.47;;;32.70;40.10;;;;;;5033838;28;20445;-62
2022/08/10 10:04:10;;;;;;;2.93;2.73;;;33.00;40.10;;;;;;5009000;28;20535;-61
2022/08/10 10:06:47;;;;;;;2.47;2.27;;;33.30;39.20;;;;;;5035516;28;20868;-61
2022/08/10 10:09:34;;;;;;;3.23;2.93;;;33.40;38.00;;;;;;5032616;28;20440;-63
2022/08/10 10:12:37;;;;;;;2.47;2.27;;;34.00;37.50;;;;;;5027249;28;20837;-62
2022/08/10 10:15:21;;;;;;;2.90;2.00;;;34.00;36.80;;;;;;4980143;28;20869;-63
2022/08/10 10:18:02;;;;;;;3.23;2.50;;;34.80;37.10;;;;;;5031522;28;20441;-62
2022/08/10 10:20:58;;;;;;;2.90;2.70;;;34.90;35.20;;;;;;5037373;28;20801;-62
2022/08/10 10:23:52;;;;;;;4.50;2.43;;;35.10;35.40;;;;;;5030208;28;20818;-62
2022/08/10 10:26:32;;;;;;;2.00;1.90;;;34.50;35.50;;;;;;5024541;28;20440;-62
2022/08/10 10:29:28;;;;;;;2.90;2.33;;;35.50;34.80;;;;;;5035595;28;20458;-62
2022/08/10 10:32:02;;;;;;;2.20;2.10;;;36.70;33.50;;;;;;5030136;28;20452;-62
2022/08/10 10:35:00;;;;;;;2.60;2.37;;;37.70;31.60;;;;;;5029501;28;20460;-62
2022/08/10 10:37:28;;;;;;;3.03;2.57;;;35.80;32.40;;;;;;4992544;28;20849;-62
2022/08/10 10:39:55;;;;;;;5.23;3.27;;;33.50;34.20;;;;;;5035314;28;20485;-61
2022/08/10 10:42:49;;;;;;;2.57;2.37;;;33.30;34.90;;;;;;5030634;28;20464;-61
2022/08/10 10:45:18;;;;;;;2.90;2.70;;;33.70;34.80;;;;;;5032675;28;20462;-62
2022/08/10 10:47:58;;;;;;;2.90;2.50;;;34.00;34.60;;;;;;5041211;28;20439;-62
2022/08/10 10:50:48;;;;;;;2.53;2.43;;;34.30;33.90;;;;;;5031098;28;20424;-62
2022/08/10 10:53:44;;;;;;;2.73;2.50;;;33.90;34.10;;;;;;5028988;28;20515;-62
2022/08/10 10:56:19;;;;;;;6.20;2.40;;;34.00;34.40;;;;;;5039397;28;20444;-62
2022/08/10 10:59:04;;;;;;;2.40;2.30;;;34.40;33.80;;;;;;5034435;28;20535;-62
2022/08/10 11:02:04;;;;;;;5.77;2.10;;;34.60;33.70;;;;;;5036209;28;20436;-63
2022/08/10 11:05:03;;;;;;;2.90;2.70;;;35.50;33.50;;;;;;5000117;28;20518;-63
2022/08/10 11:07:37;;;;;;;2.80;2.60;;;35.00;33.40;;;;;;5016882;28;20477;-62
2022/08/10 11:10:12;;;;;;;1.97;1.83;;;35.50;32.90;;;;;;5045751;28;20973;-63
2022/08/10 11:12:54;;;;;;;2.23;2.13;;;35.50;32.70;;;;;;5039494;28;21002;-63
2022/08/10 11:15:34;;;;;;;2.63;2.53;;;36.50;31.40;;;;;;5027506;28;20452;-63
2022/08/10 11:18:14;;;;;;;2.00;1.90;;;36.40;31.20;;;;;;5036900;28;20448;-64
2022/08/10 11:20:49;;;;;;;2.90;2.47;;;37.50;30.90;;;;;;5042487;28;20438;-63
2022/08/10 11:23:21;;;;;;;2.70;2.50;;;37.90;29.70;;;;;;5039742;28;20506;-63
2022/08/10 11:26:10;;;;;;;2.50;2.40;;;37.30;29.90;;;;;;5031421;28;20436;-63
2022/08/10 11:28:52;;;;;;;3.13;2.37;;;37.00;29.70;;;;;;5034166;28;20445;-63
2022/08/10 11:31:38;;;;;;;3.10;2.33;;;37.40;30.00;;;;;;5026499;28;20440;-63
2022/08/10 11:34:39;;;;;;;3.13;2.27;;;38.70;28.60;;;;;;5035636;28;20468;-63
2022/08/10 11:37:18;;;;;;;3.23;2.87;;;38.40;28.10;;;;;;5026331;28;20858;-63
2022/08/10 11:39:50;;;;;;;3.80;2.80;;;38.30;28.80;;;;;;5034415;28;20439;-62
2022/08/10 11:42:39;;;;;;;5.43;2.57;;;38.40;28.60;;;;;;5031736;28;21044;-63
2022/08/10 11:45:16;;;;;;;2.70;2.50;;;38.30;28.80;;;;;;5015364;28;20849;-63
2022/08/10 11:47:51;;;;;;;2.37;2.27;;;38.80;28.30;;;;;;5028092;28;20952;-63
2022/08/10 11:50:23;;;;;;;2.70;2.47;;;38.30;28.50;;;;;;5024742;28;20478;-63
2022/08/10 11:53:14;;;;;;;2.80;2.60;;;39.30;28.00;;;;;;5033958;28;20440;-63
2022/08/10 11:55:48;;;;;;;2.50;2.30;;;40.00;27.70;;;;;;5033454;28;20455;-61
2022/08/10 12:01:04;;;;;;;2.90;2.70;;;38.10;28.30;;;;;;5041618;28;20447;-63
2022/08/10 12:03:36;;;;;;;3.70;2.57;;;38.00;28.20;;;;;;5038094;28;21020;-62
2022/08/10 12:06:04;;;;;;;5.60;2.70;;;38.40;28.20;;;;;;5035079;28;21024;-63
2022/08/10 12:08:31;;;;;;;2.87;2.60;;;39.50;28.20;;;;;;5043012;28;20810;-62
2022/08/10 12:10:58;;;;;;;3.27;2.60;;;40.90;27.00;;;;;;5039737;28;20468;-63
2022/08/10 12:13:38;;;;;;;4.40;2.70;;;42.00;26.70;;;;;;5032317;28;20440;-63
2022/08/10 12:16:11;;;;;;;2.57;2.40;;;41.90;26.10;;;;;;5036733;28;20478;-62
2022/08/10 12:18:48;;;;;;;2.73;2.53;;;41.90;26.00;;;;;;5037670;28;20437;-63
2022/08/10 12:21:44;;;;;;;3.07;2.87;;;40.80;26.10;;;;;;5026792;28;20443;-63
2022/08/10 12:24:35;;;;;;;3.10;2.10;;;39.00;27.50;;;;;;5028763;28;21001;-62
2022/08/10 12:27:21;;;;;;;2.80;2.50;;;40.40;26.80;;;;;;5039151;28;20429;-62
2022/08/10 12:30:00;;;;;;;3.10;2.70;;;39.80;26.70;;;;;;5026287;28;20440;-62
2022/08/10 12:32:52;;;;;;;3.03;2.83;;;39.70;26.70;;;;;;5032382;28;21255;-62
2022/08/10 12:35:29;;;;;;;2.53;2.43;;;39.60;26.80;;;;;;5026922;28;20996;-62
2022/08/10 12:38:20;;;;;;;2.30;2.20;;;39.60;26.50;;;;;;5037670;28;20436;-63
2022/08/10 12:40:52;;;;;;;2.87;2.70;;;39.10;26.30;;;;;;5031213;28;20437;-63
2022/08/10 12:43:35;;;;;;;2.50;2.40;;;38.90;26.40;;;;;;5031942;28;20817;-62
2022/08/10 12:46:25;;;;;;;3.30;2.30;;;39.70;26.40;;;;;;5036014;28;20588;-63
2022/08/10 12:49:16;;;;;;;2.57;2.47;;;39.40;26.40;;;;;;5026260;28;20512;-63
2022/08/10 12:51:47;;;;;;;2.60;2.10;;;40.60;25.80;;;;;;5032641;28;20459;-62
2022/08/10 12:54:17;;;;;;;4.20;2.90;;;40.60;25.50;;;;;;5029200;28;21009;-63
2022/08/10 12:56:56;;;;;;;2.40;2.30;;;39.60;25.70;;;;;;5037002;28;20860;-63
2022/08/10 12:59:26;;;;;;;2.73;2.63;;;39.50;26.30;;;;;;5025698;28;20980;-63
2022/08/10 13:01:55;;;;;;;2.33;2.17;;;40.00;25.80;;;;;;5029197;28;20953;-63
2022/08/10 13:04:36;;;;;;;5.47;2.47;;;41.00;25.50;;;;;;5030198;28;20497;-62
2022/08/10 13:07:04;;;;;;;2.80;2.60;;;40.60;25.90;;;;;;5037959;28;20443;-63
2022/08/10 13:09:30;;;;;;;2.70;2.50;;;40.30;25.60;;;;;;5036394;28;20461;-62
2022/08/10 13:12:10;;;;;;;7.73;2.70;;;41.30;25.40;;;;;;5034358;28;20830;-63
2022/08/10 13:14:45;;;;;;;2.50;2.40;;;42.10;25.00;;;;;;5034889;28;20491;-63
2022/08/10 13:17:12;;;;;;;2.63;2.03;;;42.30;24.60;;;;;;5033420;28;20657;-62
2022/08/10 13:19:42;;;;;;;2.27;1.90;;;42.20;24.70;;;;;;5033350;28;20467;-62
2022/08/10 13:22:10;;;;;;;2.17;1.90;;;41.50;24.80;;;;;;5035757;28;20479;-63
2022/08/10 13:24:41;;;;;;;3.40;3.10;;;41.80;24.80;;;;;;5030707;28;20467;-63